createdAt,value
2022-11-23T00:03:05.708Z,45.90
2022-11-23T00:08:10.976Z,41.42
2022-11-23T00:13:14.729Z,45.83
2022-11-23T00:18:18.600Z,37.72
2022-11-23T00:23:23.994Z,44.47
2022-11-23T00:28:28.140Z,38.22
2022-11-23T00:33:31.904Z,35.70
2022-11-23T00:38:39.141Z,35.40
2022-11-23T00:43:44.497Z,29.77
2022-11-23T00:48:50.045Z,36.53
2022-11-23T00:53:55.482Z,37.15
2022-11-23T00:59:02.385Z,33.90
2022-11-23T01:04:08.421Z,31.30
2022-11-23T01:14:18.817Z,24.40
2022-11-23T01:19:22.649Z,24.33
2022-11-23T01:24:27.960Z,25.10
2022-11-23T01:29:32.222Z,26.40
2022-11-23T01:34:38.303Z,27.60
2022-11-23T01:39:43.399Z,23.92
2022-11-23T01:44:47.269Z,22.83
2022-11-23T01:49:53.914Z,25.25
2022-11-23T01:55:03.885Z,22.00
2022-11-23T02:00:13.697Z,20.30
2022-11-23T02:05:20.090Z,19.58
2022-11-23T02:15:29.401Z,19.27
2022-11-23T02:20:33.698Z,19.23
2022-11-23T02:25:45.711Z,18.00
2022-11-23T02:30:53.872Z,17.05
2022-11-23T02:36:02.388Z,17.02
2022-11-23T02:41:06.935Z,18.70
2022-11-23T02:46:13.419Z,17.17
2022-11-23T02:51:17.185Z,18.15
2022-11-23T02:56:20.928Z,18.08
2022-11-23T03:01:26.611Z,17.95
2022-11-23T03:06:30.691Z,18.75
2022-11-23T03:11:35.338Z,15.18
2022-11-23T03:16:41.143Z,19.10
2022-11-23T03:21:45.294Z,23.55
2022-11-23T03:26:49.438Z,19.15
2022-11-23T03:31:58.142Z,17.90
2022-11-23T03:37:01.926Z,23.00
2022-11-23T03:42:06.170Z,26.00
2022-11-23T03:47:13.200Z,24.42
2022-11-23T03:52:16.978Z,21.20
2022-11-23T03:57:21.650Z,19.63
2022-11-23T04:02:27.282Z,19.27
2022-11-23T04:12:45.849Z,21.33
2022-11-23T04:17:53.064Z,22.10
2022-11-23T04:22:56.915Z,23.00
2022-11-23T04:28:02.541Z,25.73
2022-11-23T04:33:08.295Z,25.77
2022-11-23T04:38:12.280Z,21.58
2022-11-23T04:43:16.177Z,23.98
2022-11-23T04:48:21.926Z,21.30
2022-11-23T04:58:34.629Z,25.85
2022-11-23T05:03:40.389Z,21.77
2022-11-23T05:08:46.073Z,24.08
2022-11-23T05:14:15.649Z,24.00
2022-11-23T05:19:20.920Z,25.80
2022-11-23T05:24:25.527Z,25.13
2022-11-23T05:29:45.160Z,22.52
2022-11-23T05:34:51.132Z,23.95
2022-11-23T05:39:56.132Z,24.45
2022-11-23T05:45:00.869Z,23.35
2022-11-23T05:50:15.254Z,20.15
2022-11-23T05:55:22.055Z,22.83
2022-11-23T06:00:26.027Z,17.52
2022-11-23T06:05:37.466Z,19.98
2022-11-23T06:10:41.247Z,19.08
2022-11-23T06:15:45.144Z,18.25
2022-11-23T06:20:51.335Z,18.73
2022-11-23T06:25:55.401Z,15.00
2022-11-23T06:31:04.658Z,17.35
2022-11-23T06:36:12.661Z,17.77
2022-11-23T06:41:22.733Z,14.15
2022-11-23T06:46:27.387Z,15.35
2022-11-23T06:51:33.615Z,14.67
2022-11-23T06:56:37.378Z,14.93
2022-11-23T07:01:41.255Z,14.57
2022-11-23T07:06:48.864Z,13.65
2022-11-23T07:12:04.327Z,14.23
2022-11-23T07:17:08.482Z,14.85
2022-11-23T07:22:14.537Z,15.32
2022-11-23T07:27:18.735Z,15.02
2022-11-23T07:32:22.919Z,18.08
2022-11-23T07:37:28.512Z,16.50
2022-11-23T07:47:43.506Z,15.95
2022-11-23T07:52:48.649Z,16.63
2022-11-23T07:57:56.502Z,14.07
2022-11-23T08:08:28.162Z,17.65
2022-11-23T08:13:31.988Z,16.58
2022-11-23T08:18:36.106Z,15.05
2022-11-23T08:23:41.283Z,19.10
2022-11-23T08:28:45.227Z,19.05
2022-11-23T08:33:49.283Z,19.15
2022-11-23T08:38:54.610Z,21.73
2022-11-23T08:43:58.584Z,17.48
2022-11-23T08:49:02.719Z,16.95
2022-11-23T08:54:08.029Z,17.38
2022-11-23T08:59:12.544Z,18.25
2022-11-23T09:04:20.520Z,15.75
2022-11-23T09:09:26.110Z,16.17
2022-11-23T09:14:30.614Z,18.05
2022-11-23T09:19:34.584Z,18.20
2022-11-23T09:24:39.834Z,18.52
2022-11-23T09:29:43.695Z,18.15
2022-11-23T09:34:47.461Z,17.10
2022-11-23T09:39:52.576Z,18.13
2022-11-23T09:45:13.045Z,20.45
2022-11-23T09:50:23.185Z,16.88
2022-11-23T09:55:38.867Z,17.50
2022-11-23T10:00:47.529Z,20.25
2022-11-23T10:06:08.821Z,17.23
2022-11-23T10:11:33.936Z,19.73
2022-11-23T10:16:45.579Z,21.48
2022-11-23T10:21:56.126Z,20.65
2022-11-23T10:27:03.776Z,19.10
2022-11-23T10:32:22.822Z,21.63
2022-11-23T10:37:26.969Z,21.50
2022-11-23T10:42:38.424Z,21.10
2022-11-23T10:47:49.322Z,19.80
2022-11-23T10:52:55.817Z,20.35
2022-11-23T10:58:02.218Z,23.38
2022-11-23T11:03:25.001Z,20.27
2022-11-23T11:08:32.178Z,21.38
2022-11-23T11:13:45.137Z,22.77
2022-11-23T11:18:49.540Z,20.70
2022-11-23T11:23:55.573Z,21.42
2022-11-23T11:29:04.207Z,26.92
2022-11-23T11:34:17.492Z,25.73
2022-11-23T11:39:27.108Z,26.13
2022-11-23T11:44:36.087Z,22.45
2022-11-23T11:49:45.503Z,22.10
2022-11-23T11:54:54.611Z,24.88
2022-11-23T12:00:02.000Z,25.65
2022-11-23T12:05:19.069Z,19.27
2022-11-23T12:10:29.252Z,20.65
2022-11-23T12:15:49.419Z,21.60
2022-11-23T12:21:01.518Z,20.73
2022-11-23T12:26:20.809Z,21.10
2022-11-23T12:31:40.763Z,22.17
2022-11-23T12:37:05.935Z,20.13
2022-11-23T12:42:18.283Z,24.10
2022-11-23T12:47:36.297Z,22.35
2022-11-23T12:52:54.080Z,27.13
2022-11-23T12:58:05.364Z,27.30
2022-11-23T13:04:15.153Z,21.75
2022-11-23T13:09:56.790Z,26.60
2022-11-23T13:15:18.475Z,23.75
2022-11-23T13:20:33.316Z,22.60
2022-11-23T13:25:40.932Z,24.23
2022-11-23T13:31:13.997Z,22.65
2022-11-23T13:36:18.500Z,22.25
2022-11-23T13:42:00.633Z,21.95
2022-11-23T13:47:19.757Z,18.05
2022-11-23T13:52:36.380Z,20.48
2022-11-23T13:57:41.058Z,19.50
2022-11-23T14:02:44.951Z,19.95
2022-11-23T14:07:51.036Z,19.48
2022-11-23T14:12:58.772Z,22.65
2022-11-23T14:18:41.185Z,19.52
2022-11-23T14:24:21.683Z,21.17
2022-11-23T14:29:36.594Z,24.10
2022-11-23T14:34:53.654Z,23.60
2022-11-23T14:40:11.771Z,26.08
2022-11-23T14:45:17.042Z,24.40
2022-11-23T14:50:25.856Z,22.00
2022-11-23T14:55:32.862Z,23.08
2022-11-23T15:00:40.255Z,23.10
2022-11-23T15:05:47.373Z,20.52
2022-11-23T15:11:01.736Z,21.05
2022-11-23T15:16:06.299Z,21.17
2022-11-23T15:21:25.531Z,20.90
2022-11-23T15:26:50.152Z,20.20
2022-11-23T15:32:14.321Z,19.20
2022-11-23T15:37:18.747Z,17.10
2022-11-23T15:42:25.785Z,16.42
2022-11-23T15:47:31.356Z,17.63
2022-11-23T15:52:36.658Z,18.08
2022-11-23T15:57:43.009Z,17.65
2022-11-23T16:02:46.919Z,18.48
2022-11-23T16:07:53.109Z,18.92
2022-11-23T16:13:00.333Z,20.50
2022-11-23T16:18:05.802Z,19.10
2022-11-23T16:23:20.615Z,16.58
2022-11-23T16:28:29.766Z,21.00
2022-11-23T16:33:34.174Z,23.33
2022-11-23T16:38:38.250Z,22.25
2022-11-23T16:43:43.414Z,22.75
2022-11-23T16:48:47.406Z,23.35
2022-11-23T16:54:12.995Z,28.83
2022-11-23T16:59:19.164Z,19.77
2022-11-23T17:04:23.496Z,20.15
2022-11-23T17:09:27.399Z,22.13
2022-11-23T17:14:38.180Z,22.45
2022-11-23T17:19:47.136Z,19.83
2022-11-23T17:24:52.768Z,24.65
2022-11-23T17:30:00.741Z,24.88
2022-11-23T17:35:05.514Z,25.50
2022-11-23T17:40:14.821Z,20.90
2022-11-23T17:45:20.155Z,22.40
2022-11-23T17:50:25.276Z,21.67
2022-11-23T17:55:29.427Z,23.35
2022-11-23T18:00:36.366Z,23.55
2022-11-23T18:05:40.325Z,27.25
2022-11-23T18:10:44.221Z,28.67
2022-11-23T18:15:49.408Z,29.20
2022-11-23T18:20:53.442Z,29.70
2022-11-23T18:26:01.587Z,31.83
2022-11-23T18:31:07.253Z,29.15
2022-11-23T18:41:18.307Z,30.38
2022-11-23T18:46:24.251Z,29.23
2022-11-23T18:56:32.762Z,34.10
2022-11-23T19:01:38.263Z,36.92
2022-11-23T19:06:42.800Z,39.20
2022-11-23T19:11:47.647Z,34.70
2022-11-23T19:16:53.038Z,37.42
2022-11-23T19:21:56.858Z,36.13
2022-11-23T19:27:00.675Z,32.72
2022-11-23T19:32:06.816Z,36.45
2022-11-23T19:37:11.029Z,30.55
2022-11-23T19:42:14.798Z,29.55
2022-11-23T19:47:22.920Z,27.67
2022-11-23T19:52:47.962Z,25.08
2022-11-23T19:57:52.905Z,22.85
2022-11-23T20:02:59.452Z,22.08
2022-11-23T20:08:04.032Z,20.55
2022-11-23T20:13:07.864Z,16.77
2022-11-23T20:18:13.270Z,19.30
2022-11-23T20:23:17.149Z,17.13
2022-11-23T20:28:21.193Z,20.45
2022-11-23T20:33:26.381Z,17.50
2022-11-23T20:38:30.387Z,16.80
2022-11-23T20:43:34.303Z,16.50
2022-11-23T20:48:40.721Z,16.27
2022-11-23T20:53:48.201Z,15.68
2022-11-23T20:58:55.999Z,14.05
2022-11-23T21:04:01.604Z,11.98
2022-11-23T21:09:05.512Z,13.13
2022-11-23T21:14:17.644Z,13.43
2022-11-23T21:19:25.439Z,13.65
2022-11-23T21:24:29.683Z,13.25
2022-11-23T21:29:34.191Z,13.57
2022-11-23T21:34:39.370Z,11.93
2022-11-23T21:39:46.585Z,10.67
2022-11-23T21:44:53.578Z,11.93
2022-11-23T21:49:58.804Z,11.35
2022-11-23T21:55:03.045Z,13.27
2022-11-23T22:00:08.043Z,10.70
2022-11-23T22:05:17.420Z,13.35
2022-11-23T22:10:21.279Z,13.25
2022-11-23T22:15:25.155Z,13.23
2022-11-23T22:20:30.419Z,12.32
2022-11-23T22:25:34.233Z,13.60
2022-11-23T22:30:38.175Z,12.75
2022-11-23T22:35:43.576Z,11.82
2022-11-23T22:40:47.766Z,12.85
2022-11-23T22:45:51.861Z,12.75
2022-11-23T22:50:57.957Z,10.77
2022-11-23T23:01:08.899Z,11.93
2022-11-23T23:11:21.226Z,9.52
2022-11-23T23:16:25.628Z,10.63
2022-11-23T23:21:31.140Z,9.60
2022-11-23T23:26:35.585Z,9.63
2022-11-23T23:31:39.650Z,10.38
2022-11-23T23:36:44.910Z,11.35
2022-11-23T23:41:50.006Z,10.32
2022-11-23T23:46:53.784Z,9.63
2022-11-23T23:51:59.160Z,9.27
2022-11-23T23:57:03.399Z,9.90
